Time;durP1;ratioP1;P1;durP2;ratioP2;P2;SDS_P1;SDS_P2;PMS_P1;PMS_P2;Temp;Humidity;BMP_temperature;BMP_pressure;BME280_temperature;BME280_humidity;BME280_pressure;Samples;Min_cycle;Max_cycle;Signal;HPM_P1;HPM_P2
2022/08/02 00:02:29;;;;;;;4.67;1.63;;;;;;;;;;10458784;28;20494;-74
2022/08/02 00:07:29;;;;;;;8.32;1.73;;;;;;;;;;10457208;28;20123;-74
2022/08/02 00:12:29;;;;;;;3.90;1.52;;;;;;;;;;10480327;28;20398;-74
2022/08/02 00:17:29;;;;;;;1.92;1.67;;;;;;;;;;10466784;28;20487;-74
2022/08/02 00:22:30;;;;;;;4.30;1.85;;;;;;;;;;10458044;28;20509;-74
2022/08/02 00:27:30;;;;;;;1.87;1.60;;;;;;;;;;10478414;28;20090;-75
2022/08/02 00:32:30;;;;;;;2.92;1.75;;;;;;;;;;10484023;28;20028;-75
2022/08/02 00:37:30;;;;;;;5.95;1.92;;;;;;;;;;10459281;28;20194;-74
2022/08/02 00:42:31;;;;;;;3.38;1.77;;;;;;;;;;10473391;28;20407;-74
2022/08/02 00:47:31;;;;;;;3.08;2.15;;;;;;;;;;10473016;28;20043;-74
2022/08/02 00:52:31;;;;;;;2.72;1.83;;;;;;;;;;10472812;28;20040;-74
2022/08/02 00:57:31;;;;;;;2.03;1.75;;;;;;;;;;10455985;28;20075;-74
2022/08/02 01:02:32;;;;;;;3.83;1.63;;;;;;;;;;10490774;28;20115;-74
2022/08/02 01:07:32;;;;;;;5.27;2.27;;;;;;;;;;10455078;28;20067;-75
2022/08/02 01:12:32;;;;;;;2.88;1.60;;;;;;;;;;10470756;28;20025;-76
2022/08/02 01:17:51;;;;;;;1.70;1.60;;;;;;;;;;10476237;28;20467;-74
2022/08/02 01:22:51;;;;;;;2.40;1.75;;;;;;;;;;10472545;28;20082;-74
2022/08/02 01:28:10;;;;;;;4.35;1.52;;;;;;;;;;10489393;28;20567;-74
2022/08/02 01:33:11;;;;;;;3.38;2.10;;;;;;;;;;10470649;28;20486;-74
2022/08/02 01:38:24;;;;;;;3.45;2.45;;;;;;;;;;10482748;28;20491;-74
2022/08/02 01:43:27;;;;;;;2.33;2.00;;;;;;;;;;10471630;28;20464;-74
2022/08/02 01:48:28;;;;;;;2.90;2.47;;;;;;;;;;10474527;28;20044;-74
2022/08/02 01:53:29;;;;;;;4.65;3.10;;;;;;;;;;10478425;28;20048;-74
2022/08/02 01:58:31;;;;;;;5.50;4.28;;;;;;;;;;10478917;28;20218;-74
2022/08/02 02:03:32;;;;;;;5.82;4.00;;;;;;;;;;10464040;28;20025;-74
2022/08/02 02:08:40;;;;;;;4.72;3.35;;;;;;;;;;10471084;28;20147;-74
2022/08/02 02:13:41;;;;;;;5.40;4.45;;;;;;;;;;10469827;28;20025;-73
2022/08/02 02:18:42;;;;;;;6.35;4.25;;;;;;;;;;10452363;28;20091;-74
2022/08/02 02:23:43;;;;;;;5.53;4.47;;;;;;;;;;10462945;28;20024;-75
2022/08/02 02:28:45;;;;;;;8.03;4.10;;;;;;;;;;10451738;28;20078;-74
2022/08/02 02:33:49;;;;;;;4.30;3.90;;;;;;;;;;10469844;28;20024;-75
2022/08/02 02:38:50;;;;;;;7.28;4.28;;;;;;;;;;10435384;28;20017;-73
2022/08/02 02:43:52;;;;;;;7.50;4.18;;;;;;;;;;10435530;28;20021;-76
2022/08/02 02:48:53;;;;;;;7.82;3.45;;;;;;;;;;10441476;28;20031;-74
2022/08/02 02:53:54;;;;;;;5.15;2.95;;;;;;;;;;10452104;28;20021;-75
2022/08/02 02:58:54;;;;;;;4.97;3.33;;;;;;;;;;10470802;28;20027;-73
2022/08/02 03:04:03;;;;;;;4.03;3.00;;;;;;;;;;10472177;28;20472;-74
2022/08/02 03:09:05;;;;;;;3.10;2.80;;;;;;;;;;10451905;28;20299;-74
2022/08/02 03:14:08;;;;;;;6.70;3.15;;;;;;;;;;10468921;28;20042;-74
2022/08/02 03:19:08;;;;;;;2.60;2.20;;;;;;;;;;10451958;28;20507;-74
2022/08/02 03:24:08;;;;;;;2.88;2.53;;;;;;;;;;10479233;28;20056;-75
2022/08/02 03:29:08;;;;;;;6.07;2.95;;;;;;;;;;10472604;28;20025;-73
2022/08/02 03:34:09;;;;;;;9.45;3.33;;;;;;;;;;10475589;28;20049;-75
2022/08/02 03:39:09;;;;;;;4.18;3.13;;;;;;;;;;10480856;28;20453;-75
2022/08/02 03:44:11;;;;;;;3.17;2.70;;;;;;;;;;10476066;28;20024;-73
2022/08/02 03:49:15;;;;;;;3.63;2.70;;;;;;;;;;10475825;28;20033;-75
2022/08/02 03:54:16;;;;;;;3.33;3.00;;;;;;;;;;10478509;28;20052;-74
2022/08/02 03:59:16;;;;;;;7.30;3.45;;;;;;;;;;10482215;28;20017;-74
2022/08/02 04:04:17;;;;;;;5.43;3.05;;;;;;;;;;10488178;28;20029;-74
2022/08/02 04:09:17;;;;;;;3.45;2.70;;;;;;;;;;10459319;28;20139;-75
2022/08/02 04:14:17;;;;;;;3.85;2.90;;;;;;;;;;10449506;28;20033;-75
2022/08/02 04:19:32;;;;;;;5.40;3.50;;;;;;;;;;10458083;28;20025;-74
2022/08/02 04:24:40;;;;;;;3.63;3.33;;;;;;;;;;10458054;28;20051;-75
2022/08/02 04:29:41;;;;;;;12.60;3.83;;;;;;;;;;10457597;28;20082;-75
2022/08/02 04:34:42;;;;;;;8.57;3.40;;;;;;;;;;10476520;28;20028;-75
2022/08/02 04:39:42;;;;;;;10.80;3.28;;;;;;;;;;10487622;28;20449;-76
2022/08/02 04:44:42;;;;;;;8.20;3.10;;;;;;;;;;10457029;28;20025;-75
2022/08/02 04:49:43;;;;;;;6.10;3.92;;;;;;;;;;10473557;28;20020;-75
2022/08/02 04:54:43;;;;;;;11.80;3.08;;;;;;;;;;10473185;28;20028;-74
2022/08/02 04:59:43;;;;;;;13.27;2.88;;;;;;;;;;10477230;28;20100;-75
2022/08/02 05:04:43;;;;;;;8.98;2.70;;;;;;;;;;10472915;28;20009;-75
2022/08/02 05:09:44;;;;;;;6.00;2.90;;;;;;;;;;10472836;28;20061;-74
2022/08/02 05:14:44;;;;;;;3.60;2.70;;;;;;;;;;10476040;28;20064;-75
2022/08/02 05:19:44;;;;;;;10.75;4.55;;;;;;;;;;10455759;28;20457;-74
2022/08/02 05:24:44;;;;;;;7.60;3.03;;;;;;;;;;10469630;28;20499;-74
2022/08/02 05:29:45;;;;;;;15.43;3.88;;;;;;;;;;10478559;28;20398;-75
2022/08/02 05:34:45;;;;;;;7.45;3.15;;;;;;;;;;10459506;28;20017;-75
2022/08/02 05:39:45;;;;;;;11.18;4.07;;;;;;;;;;10474881;28;20040;-75
2022/08/02 05:44:45;;;;;;;8.68;3.72;;;;;;;;;;10474409;28;20433;-75
2022/08/02 05:49:46;;;;;;;9.60;3.70;;;;;;;;;;10470295;28;20515;-74
2022/08/02 05:54:58;;;;;;;9.30;3.58;;;;;;;;;;10452588;28;20013;-74
2022/08/02 05:59:58;;;;;;;12.55;3.20;;;;;;;;;;10471809;28;20173;-75
2022/08/02 06:05:03;;;;;;;7.55;2.88;;;;;;;;;;10453532;28;20031;-75
2022/08/02 06:10:04;;;;;;;4.55;2.60;;;;;;;;;;10457849;28;20083;-74
2022/08/02 06:15:04;;;;;;;8.25;3.05;;;;;;;;;;10470111;28;20071;-74
2022/08/02 06:20:05;;;;;;;4.82;1.50;;;;;;;;;;10453255;28;20025;-75
2022/08/02 06:25:05;;;;;;;5.00;1.67;;;;;;;;;;10440579;28;20028;-74
2022/08/02 06:30:07;;;;;;;6.70;1.60;;;;;;;;;;10452763;28;20490;-73
2022/08/02 06:35:07;;;;;;;3.70;1.27;;;;;;;;;;10464660;28;20271;-74
2022/08/02 06:40:21;;;;;;;2.23;1.43;;;;;;;;;;10441893;28;20017;-74
2022/08/02 06:45:22;;;;;;;1.42;1.02;;;;;;;;;;10469318;28;20384;-74
2022/08/02 06:50:22;;;;;;;1.65;1.20;;;;;;;;;;10471241;28;20017;-74
2022/08/02 06:55:22;;;;;;;1.75;1.10;;;;;;;;;;10471636;28;20483;-74
2022/08/02 07:00:22;;;;;;;5.70;1.98;;;;;;;;;;10469517;28;20108;-74
2022/08/02 07:05:23;;;;;;;3.90;1.10;;;;;;;;;;10469590;28;20091;-74
2022/08/02 07:10:23;;;;;;;3.40;0.90;;;;;;;;;;10471076;28;20045;-74
2022/08/02 07:15:24;;;;;;;4.93;1.40;;;;;;;;;;10451563;28;20028;-74
2022/08/02 07:20:24;;;;;;;1.70;1.03;;;;;;;;;;10468395;28;20047;-73
2022/08/02 07:25:24;;;;;;;5.03;1.33;;;;;;;;;;10473979;28;20020;-75
2022/08/02 07:30:25;;;;;;;5.32;1.52;;;;;;;;;;10467475;28;20025;-74
2022/08/02 07:35:25;;;;;;;3.78;1.00;;;;;;;;;;10468147;28;20017;-74
2022/08/02 07:40:26;;;;;;;2.88;1.02;;;;;;;;;;10449645;28;20069;-73
2022/08/02 07:45:26;;;;;;;8.00;2.07;;;;;;;;;;10467848;28;20029;-74
2022/08/02 07:50:27;;;;;;;1.80;0.88;;;;;;;;;;10450780;28;20025;-74
2022/08/02 07:55:27;;;;;;;2.38;1.10;;;;;;;;;;10482534;28;20517;-74
2022/08/02 08:00:27;;;;;;;3.08;1.00;;;;;;;;;;10450991;28;20494;-72
2022/08/02 08:05:28;;;;;;;3.55;1.17;;;;;;;;;;10467538;28;20024;-74
2022/08/02 08:10:28;;;;;;;8.13;0.98;;;;;;;;;;10470972;28;20045;-74
2022/08/02 08:15:28;;;;;;;1.63;0.73;;;;;;;;;;10461727;28;20029;-73
2022/08/02 08:20:28;;;;;;;2.05;0.98;;;;;;;;;;10467385;28;20024;-74
2022/08/02 08:25:29;;;;;;;3.22;0.63;;;;;;;;;;10476660;28;20086;-73
2022/08/02 08:30:29;;;;;;;1.42;0.63;;;;;;;;;;10456414;28;20052;-73
2022/08/02 08:35:29;;;;;;;8.43;0.88;;;;;;;;;;10474463;28;20029;-74
2022/08/02 08:40:29;;;;;;;1.33;0.43;;;;;;;;;;10456196;28;20031;-73
2022/08/02 08:45:30;;;;;;;6.50;1.10;;;;;;;;;;10474256;28;20024;-73
2022/08/02 08:50:32;;;;;;;0.70;0.40;;;;;;;;;;10476720;28;20053;-74
2022/08/02 08:55:33;;;;;;;1.08;0.57;;;;;;;;;;10457445;28;20082;-74
2022/08/02 09:00:34;;;;;;;3.58;0.57;;;;;;;;;;10473181;28;20486;-74
2022/08/02 09:05:39;;;;;;;5.07;0.90;;;;;;;;;;10472716;28;20017;-74
2022/08/02 09:10:39;;;;;;;2.83;0.60;;;;;;;;;;10456263;28;20037;-74
2022/08/02 09:15:40;;;;;;;1.15;0.60;;;;;;;;;;10456307;28;20402;-73
2022/08/02 09:20:51;;;;;;;1.27;0.80;;;;;;;;;;10453478;28;20482;-75
2022/08/02 09:25:56;;;;;;;7.18;0.70;;;;;;;;;;10482709;28;20431;-73
2022/08/02 09:30:57;;;;;;;2.22;0.50;;;;;;;;;;10455851;28;20051;-72
2022/08/02 09:35:58;;;;;;;0.82;0.28;;;;;;;;;;10478930;28;20021;-74
2022/08/02 09:40:59;;;;;;;0.68;0.35;;;;;;;;;;10471906;28;20490;-76
2022/08/02 09:46:08;;;;;;;0.80;0.63;;;;;;;;;;10454816;28;20116;-73
2022/08/02 09:51:08;;;;;;;1.42;0.30;;;;;;;;;;10474284;28;20025;-73
2022/08/02 09:56:08;;;;;;;0.70;0.38;;;;;;;;;;10453207;28;20020;-73
2022/08/02 10:01:09;;;;;;;2.20;0.50;;;;;;;;;;10470629;28;20387;-74
2022/08/02 10:06:09;;;;;;;0.77;0.30;;;;;;;;;;10453662;28;20266;-73
2022/08/02 10:11:11;;;;;;;0.57;0.30;;;;;;;;;;10452334;28;20072;-74
2022/08/02 10:16:11;;;;;;;0.80;0.45;;;;;;;;;;10478854;28;20025;-74
2022/08/02 10:21:18;;;;;;;2.60;0.40;;;;;;;;;;10458560;28;20488;-74
2022/08/02 10:26:19;;;;;;;0.57;0.52;;;;;;;;;;10452148;28;20017;-73
2022/08/02 10:31:22;;;;;;;2.00;0.63;;;;;;;;;;10466712;28;20020;-74
2022/08/02 10:36:25;;;;;;;1.35;0.45;;;;;;;;;;10476720;28;20104;-74
2022/08/02 10:41:39;;;;;;;0.50;0.40;;;;;;;;;;10476298;28;20020;-74
2022/08/02 10:46:39;;;;;;;1.55;0.85;;;;;;;;;;10468881;28;20553;-74
2022/08/02 10:51:58;;;;;;;0.50;0.40;;;;;;;;;;10452369;28;20064;-74
2022/08/02 10:56:59;;;;;;;0.40;0.40;;;;;;;;;;10471262;28;20051;-74
2022/08/02 11:02:00;;;;;;;0.88;0.50;;;;;;;;;;10451990;28;20049;-74
2022/08/02 11:07:29;;;;;;;0.50;0.20;;;;;;;;;;10473456;28;20025;-74
2022/08/02 11:12:30;;;;;;;0.40;0.30;;;;;;;;;;10451708;28;20473;-74
2022/08/02 11:17:49;;;;;;;1.70;0.63;;;;;;;;;;10474810;28;20017;-74
2022/08/02 11:22:50;;;;;;;1.33;0.30;;;;;;;;;;10452888;28;20016;-75
2022/08/02 11:27:50;;;;;;;0.68;0.40;;;;;;;;;;10468520;28;20013;-73
2022/08/02 11:32:55;;;;;;;2.33;0.60;;;;;;;;;;10450104;28;20632;-73
2022/08/02 11:37:55;;;;;;;3.10;0.77;;;;;;;;;;10478162;28;20095;-76
2022/08/02 11:42:55;;;;;;;0.60;0.50;;;;;;;;;;10474267;28;20112;-74
2022/08/02 11:47:56;;;;;;;2.92;0.60;;;;;;;;;;10457685;28;20024;-73
2022/08/02 11:52:56;;;;;;;5.50;0.93;;;;;;;;;;10478950;28;20017;-73
2022/08/02 11:57:57;;;;;;;0.60;0.30;;;;;;;;;;10446194;28;20119;-76
2022/08/02 12:02:57;;;;;;;1.10;0.70;;;;;;;;;;10480506;28;20529;-75
2022/08/02 12:07:58;;;;;;;3.10;0.70;;;;;;;;;;10472031;28;20072;-74
2022/08/02 12:12:59;;;;;;;1.75;0.60;;;;;;;;;;10471435;28;20017;-74
2022/08/02 12:23:19;;;;;;;1.35;0.70;;;;;;;;;;10473331;28;20052;-73
2022/08/02 12:28:22;;;;;;;0.60;0.40;;;;;;;;;;10480347;28;20044;-76
2022/08/02 12:33:23;;;;;;;6.18;0.85;;;;;;;;;;10457157;28;20074;-74
2022/08/02 12:38:23;;;;;;;5.18;0.60;;;;;;;;;;10456954;28;20537;-75
2022/08/02 12:43:23;;;;;;;2.25;1.10;;;;;;;;;;10481590;28;20032;-75
2022/08/02 12:48:37;;;;;;;2.20;0.60;;;;;;;;;;10472480;28;20471;-73
2022/08/02 12:53:37;;;;;;;1.02;0.43;;;;;;;;;;10468589;28;20477;-75
2022/08/02 12:58:48;;;;;;;1.10;0.90;;;;;;;;;;10473388;28;20052;-74
2022/08/02 13:03:49;;;;;;;2.47;0.73;;;;;;;;;;10484148;28;20392;-75
2022/08/02 13:08:49;;;;;;;1.80;0.70;;;;;;;;;;10475243;28;20049;-73
2022/08/02 13:13:50;;;;;;;2.92;0.65;;;;;;;;;;10455901;28;20029;-74
2022/08/02 13:18:50;;;;;;;2.00;0.70;;;;;;;;;;10486765;28;20434;-74
2022/08/02 13:23:50;;;;;;;3.88;0.70;;;;;;;;;;10454221;28;20027;-73
2022/08/02 13:28:51;;;;;;;0.77;0.52;;;;;;;;;;10463272;28;20095;-73
2022/08/02 13:33:51;;;;;;;1.48;0.52;;;;;;;;;;10454846;28;20095;-73
2022/08/02 13:38:51;;;;;;;1.23;0.55;;;;;;;;;;10479047;28;20021;-71
2022/08/02 13:43:51;;;;;;;1.38;0.57;;;;;;;;;;10459504;28;20035;-74
2022/08/02 13:48:52;;;;;;;1.85;0.43;;;;;;;;;;10470593;28;20017;-74
2022/08/02 13:53:52;;;;;;;2.90;0.63;;;;;;;;;;10454244;28;20048;-73
2022/08/02 13:58:52;;;;;;;0.77;0.30;;;;;;;;;;10452800;28;20083;-74
2022/08/02 14:03:53;;;;;;;1.30;0.52;;;;;;;;;;10475355;28;20017;-73
2022/08/02 14:08:53;;;;;;;1.23;0.93;;;;;;;;;;10493247;28;20053;-74
2022/08/02 14:13:53;;;;;;;1.88;1.20;;;;;;;;;;10458945;28;20422;-74
2022/08/02 14:18:53;;;;;;;3.13;0.82;;;;;;;;;;10452217;28;20024;-74
2022/08/02 14:23:54;;;;;;;1.63;0.70;;;;;;;;;;10471631;28;20025;-73
2022/08/02 14:28:54;;;;;;;3.25;0.73;;;;;;;;;;10481455;28;20017;-75
2022/08/02 14:33:54;;;;;;;0.98;0.60;;;;;;;;;;10469053;28;20560;-74
2022/08/02 14:38:55;;;;;;;3.25;1.15;;;;;;;;;;10434750;28;20009;-74
2022/08/02 14:44:05;;;;;;;0.60;0.43;;;;;;;;;;10468973;28;20017;-75
2022/08/02 14:49:07;;;;;;;0.80;0.63;;;;;;;;;;10471328;28;20020;-73
2022/08/02 14:54:07;;;;;;;0.30;0.30;;;;;;;;;;10468590;28;20502;-74
2022/08/02 14:59:08;;;;;;;5.10;1.25;;;;;;;;;;10465673;28;20040;-75
2022/08/02 15:04:08;;;;;;;1.60;0.52;;;;;;;;;;10487762;28;20021;-74
2022/08/02 15:09:08;;;;;;;3.38;0.60;;;;;;;;;;10486426;28;20098;-73
2022/08/02 15:14:09;;;;;;;1.10;0.60;;;;;;;;;;10470550;28;20025;-74
2022/08/02 15:19:09;;;;;;;0.70;0.60;;;;;;;;;;10466930;28;20108;-74
2022/08/02 15:24:09;;;;;;;2.63;0.80;;;;;;;;;;10469696;28;20024;-72
2022/08/02 15:29:09;;;;;;;2.25;0.60;;;;;;;;;;10449693;28;20104;-74
2022/08/02 15:34:10;;;;;;;2.60;1.95;;;;;;;;;;10468602;28;20017;-73
2022/08/02 15:39:11;;;;;;;0.40;0.40;;;;;;;;;;10469960;28;20434;-74
2022/08/02 15:44:12;;;;;;;1.88;0.60;;;;;;;;;;10467555;28;20499;-74
2022/08/02 15:49:13;;;;;;;2.42;0.63;;;;;;;;;;10449240;28;20017;-75
2022/08/02 15:54:13;;;;;;;4.17;1.07;;;;;;;;;;10471129;28;20548;-75
2022/08/02 15:59:13;;;;;;;2.75;1.02;;;;;;;;;;10436347;28;20490;-76
2022/08/02 16:04:14;;;;;;;1.20;0.60;;;;;;;;;;10449079;28;20040;-73
2022/08/02 16:09:14;;;;;;;0.82;0.63;;;;;;;;;;10466317;28;20327;-74
2022/08/02 16:14:15;;;;;;;2.70;1.08;;;;;;;;;;10469967;28;20403;-75
2022/08/02 16:19:15;;;;;;;5.15;0.70;;;;;;;;;;10450110;28;20506;-74
2022/08/02 16:24:15;;;;;;;1.58;0.95;;;;;;;;;;10450182;28;20020;-74
2022/08/02 16:29:17;;;;;;;1.88;0.85;;;;;;;;;;10478494;28;20129;-74
2022/08/02 16:34:17;;;;;;;2.55;1.20;;;;;;;;;;10497512;28;20611;-74
2022/08/02 16:39:17;;;;;;;2.08;0.80;;;;;;;;;;10463256;28;20203;-75
2022/08/02 16:44:18;;;;;;;2.95;1.00;;;;;;;;;;10455871;28;20170;-74
2022/08/02 16:49:18;;;;;;;0.90;0.70;;;;;;;;;;10449410;28;20521;-74
2022/08/02 16:54:19;;;;;;;3.85;0.85;;;;;;;;;;10484929;28;20025;-74
2022/08/02 16:59:19;;;;;;;3.83;1.00;;;;;;;;;;10470732;28;20505;-75
2022/08/02 17:04:19;;;;;;;3.72;1.15;;;;;;;;;;10472743;28;20082;-74
2022/08/02 17:09:19;;;;;;;1.73;1.02;;;;;;;;;;10472301;28;20052;-74
2022/08/02 17:14:20;;;;;;;6.20;1.43;;;;;;;;;;10456056;28;20021;-73
2022/08/02 17:19:20;;;;;;;3.83;1.10;;;;;;;;;;10472639;28;20478;-74
2022/08/02 17:24:20;;;;;;;1.83;1.20;;;;;;;;;;10473972;28;20040;-73
2022/08/02 17:29:22;;;;;;;2.58;1.98;;;;;;;;;;10455339;28;20028;-75
2022/08/02 17:34:22;;;;;;;1.90;1.20;;;;;;;;;;10472620;28;20479;-73
2022/08/02 17:39:23;;;;;;;3.55;2.00;;;;;;;;;;10474000;28;20108;-73
2022/08/02 17:44:23;;;;;;;1.85;1.20;;;;;;;;;;10454377;28;20054;-74
2022/08/02 17:49:24;;;;;;;3.47;1.30;;;;;;;;;;10452684;28;20108;-74
2022/08/02 17:54:24;;;;;;;2.35;1.00;;;;;;;;;;10454055;28;20025;-75
2022/08/02 17:59:26;;;;;;;1.83;1.13;;;;;;;;;;10470058;28;20491;-74
2022/08/02 18:04:27;;;;;;;5.45;1.40;;;;;;;;;;10453672;28;20020;-75
2022/08/02 18:09:28;;;;;;;3.42;1.30;;;;;;;;;;10441210;28;20049;-75
2022/08/02 18:14:29;;;;;;;3.85;1.45;;;;;;;;;;10481680;28;20494;-74
2022/08/02 18:19:30;;;;;;;6.78;1.73;;;;;;;;;;10468452;28;20207;-73
2022/08/02 18:24:30;;;;;;;3.90;1.77;;;;;;;;;;10470565;28;20063;-73
2022/08/02 18:29:31;;;;;;;3.83;1.90;;;;;;;;;;10452546;28;20021;-74
2022/08/02 18:34:31;;;;;;;2.37;1.67;;;;;;;;;;10468503;28;20028;-75
2022/08/02 18:39:32;;;;;;;4.97;1.30;;;;;;;;;;10434893;28;20035;-73
2022/08/02 18:44:32;;;;;;;3.83;2.28;;;;;;;;;;10470272;28;20071;-73
2022/08/02 18:49:32;;;;;;;4.50;2.10;;;;;;;;;;10450796;28;20028;-74
2022/08/02 18:54:33;;;;;;;2.67;2.03;;;;;;;;;;10470367;28;20485;-74
2022/08/02 18:59:33;;;;;;;6.03;2.08;;;;;;;;;;10468303;28;20020;-74
2022/08/02 19:04:33;;;;;;;3.88;1.60;;;;;;;;;;10474639;28;20029;-74
2022/08/02 19:09:34;;;;;;;4.68;1.45;;;;;;;;;;10451550;28;20057;-74
2022/08/02 19:14:34;;;;;;;4.88;2.10;;;;;;;;;;10444627;28;20037;-74
2022/08/02 19:19:35;;;;;;;6.00;2.30;;;;;;;;;;10445405;28;20471;-74
2022/08/02 19:24:36;;;;;;;2.55;1.85;;;;;;;;;;10482720;28;20051;-74
2022/08/02 19:29:38;;;;;;;7.43;2.60;;;;;;;;;;10451310;28;20482;-75
2022/08/02 19:34:38;;;;;;;4.90;2.38;;;;;;;;;;10450999;28;20081;-74
2022/08/02 19:39:38;;;;;;;3.72;2.22;;;;;;;;;;10449863;28;20135;-74
2022/08/02 19:44:39;;;;;;;3.30;2.10;;;;;;;;;;10450775;28;20021;-73
2022/08/02 19:49:39;;;;;;;4.80;1.92;;;;;;;;;;10466991;28;20025;-74
2022/08/02 19:54:39;;;;;;;1.57;1.17;;;;;;;;;;10450557;28;20331;-73
2022/08/02 19:59:40;;;;;;;3.67;1.30;;;;;;;;;;10470631;28;20351;-76
2022/08/02 20:04:40;;;;;;;1.88;1.20;;;;;;;;;;10478076;28;20461;-73
2022/08/02 20:09:40;;;;;;;2.55;0.85;;;;;;;;;;10473730;28;20053;-74
2022/08/02 20:14:40;;;;;;;3.85;1.27;;;;;;;;;;10486863;28;20064;-74
2022/08/02 20:19:41;;;;;;;8.55;1.58;;;;;;;;;;10488268;28;20052;-74
2022/08/02 20:24:41;;;;;;;2.33;1.50;;;;;;;;;;10456494;28;20057;-73
2022/08/02 20:29:41;;;;;;;8.27;2.08;;;;;;;;;;10463131;28;20023;-74
2022/08/02 20:34:42;;;;;;;4.93;1.92;;;;;;;;;;10487515;28;20107;-73
2022/08/02 20:39:42;;;;;;;2.58;1.77;;;;;;;;;;10456094;28;20021;-74
2022/08/02 20:44:42;;;;;;;4.55;1.90;;;;;;;;;;10456650;28;20044;-74
2022/08/02 20:55:01;;;;;;;3.65;1.55;;;;;;;;;;10456853;28;20025;-74
2022/08/02 21:00:05;;;;;;;4.67;1.37;;;;;;;;;;10475184;28;20025;-75
2022/08/02 21:05:05;;;;;;;3.03;1.73;;;;;;;;;;10456985;28;20112;-74
2022/08/02 21:10:06;;;;;;;1.92;1.13;;;;;;;;;;10454798;28;20523;-73
2022/08/02 21:15:07;;;;;;;1.70;1.17;;;;;;;;;;10466811;28;20031;-74
2022/08/02 21:20:07;;;;;;;2.17;1.00;;;;;;;;;;10479083;28;20020;-74
2022/08/02 21:25:09;;;;;;;6.00;1.60;;;;;;;;;;10454608;28;20021;-74
2022/08/02 21:30:10;;;;;;;4.80;1.60;;;;;;;;;;10486031;28;20017;-73
2022/08/02 21:35:10;;;;;;;3.10;1.55;;;;;;;;;;10473129;28;20029;-73
2022/08/02 21:40:11;;;;;;;1.80;1.33;;;;;;;;;;10477813;28;20104;-74
2022/08/02 21:45:12;;;;;;;1.40;1.30;;;;;;;;;;10436977;28;20017;-73
2022/08/02 21:50:13;;;;;;;4.57;1.50;;;;;;;;;;10477170;28;20381;-74
2022/08/02 21:55:13;;;;;;;3.20;1.30;;;;;;;;;;10454544;28;20021;-75
2022/08/02 22:00:14;;;;;;;2.92;1.30;;;;;;;;;;10454492;28;20028;-74
2022/08/02 22:05:14;;;;;;;1.48;1.02;;;;;;;;;;10482973;28;20099;-74
2022/08/02 22:10:14;;;;;;;1.23;1.10;;;;;;;;;;10474863;28;20048;-74
2022/08/02 22:15:15;;;;;;;3.55;1.10;;;;;;;;;;10453711;28;20037;-75
2022/08/02 22:20:15;;;;;;;1.60;1.20;;;;;;;;;;10453704;28;20021;-74
2022/08/02 22:25:15;;;;;;;2.83;1.40;;;;;;;;;;10453383;28;20021;-75
2022/08/02 22:30:16;;;;;;;3.00;1.65;;;;;;;;;;10469990;28;20810;-75
2022/08/02 22:35:16;;;;;;;5.28;1.00;;;;;;;;;;10453202;28;20398;-75
2022/08/02 22:40:16;;;;;;;1.92;1.33;;;;;;;;;;10469432;28;20509;-74
2022/08/02 22:45:16;;;;;;;2.37;1.03;;;;;;;;;;10476920;28;20036;-75
2022/08/02 22:50:17;;;;;;;6.90;1.60;;;;;;;;;;10452996;28;20029;-75
2022/08/02 22:55:17;;;;;;;4.65;1.35;;;;;;;;;;10452446;28;20036;-75
2022/08/02 23:00:17;;;;;;;5.53;1.98;;;;;;;;;;10474473;28;20024;-75
2022/08/02 23:05:19;;;;;;;2.70;1.33;;;;;;;;;;10450773;28;20108;-75
2022/08/02 23:10:19;;;;;;;1.45;1.10;;;;;;;;;;10464605;28;20128;-74
2022/08/02 23:15:20;;;;;;;1.33;1.23;;;;;;;;;;10479062;28;20103;-74
2022/08/02 23:20:20;;;;;;;2.67;1.07;;;;;;;;;;10454769;28;20267;-74
2022/08/02 23:25:21;;;;;;;0.95;0.82;;;;;;;;;;10474106;28;20104;-74
2022/08/02 23:30:21;;;;;;;2.90;0.98;;;;;;;;;;10451979;28;20505;-74
2022/08/02 23:35:21;;;;;;;4.43;1.00;;;;;;;;;;10469146;28;20120;-73
2022/08/02 23:40:22;;;;;;;2.58;1.40;;;;;;;;;;10489940;28;20028;-75
2022/08/02 23:45:22;;;;;;;1.02;0.95;;;;;;;;;;10458449;28;20477;-75
2022/08/02 23:50:22;;;;;;;2.10;1.00;;;;;;;;;;10489435;28;20103;-75
2022/08/02 23:55:22;;;;;;;1.33;0.88;;;;;;;;;;10459546;28;20025;-75
